createdAt,value
2022-10-14T00:00:22.538Z,100.00
2022-10-14T00:01:24.452Z,100.00
2022-10-14T00:02:25.829Z,100.00
2022-10-14T00:03:27.173Z,100.00
2022-10-14T00:04:28.558Z,100.00
2022-10-14T00:05:29.905Z,100.00
2022-10-14T00:06:31.970Z,100.00
2022-10-14T00:07:33.306Z,100.00
2022-10-14T00:08:34.733Z,100.00
2022-10-14T00:09:37.213Z,100.00
2022-10-14T00:10:39.791Z,100.00
2022-10-14T00:11:41.140Z,100.00
2022-10-14T00:12:42.464Z,100.00
2022-10-14T00:13:44.340Z,100.00
2022-10-14T00:14:45.773Z,100.00
2022-10-14T00:15:47.113Z,100.00
2022-10-14T00:16:51.856Z,100.00
2022-10-14T00:17:53.169Z,100.00
2022-10-14T00:18:54.768Z,100.00
2022-10-14T00:19:56.425Z,100.00
2022-10-14T00:20:58.692Z,100.00
2022-10-14T00:22:00.042Z,100.00
2022-10-14T00:23:01.640Z,100.00
2022-10-14T00:24:03.043Z,100.00
2022-10-14T00:25:04.535Z,100.00
2022-10-14T00:26:06.646Z,100.00
2022-10-14T00:27:09.855Z,100.00
2022-10-14T00:28:11.177Z,100.00
2022-10-14T00:29:13.720Z,100.00
2022-10-14T00:30:15.450Z,100.00
2022-10-14T00:31:17.391Z,100.00
2022-10-14T00:32:21.829Z,100.00
2022-10-14T00:33:26.265Z,100.00
2022-10-14T00:34:30.600Z,100.00
2022-10-14T00:35:34.910Z,100.00
2022-10-14T00:36:36.247Z,100.00
2022-10-14T00:37:37.639Z,100.00
2022-10-14T00:38:39.577Z,100.00
2022-10-14T00:39:40.875Z,100.00
2022-10-14T00:40:42.222Z,100.00
2022-10-14T00:41:43.726Z,100.00
2022-10-14T00:42:45.162Z,100.00
2022-10-14T00:44:06.528Z,100.00
2022-10-14T00:45:12.419Z,100.00
2022-10-14T00:46:13.734Z,100.00
2022-10-14T00:47:15.110Z,100.00
2022-10-14T00:48:17.785Z,100.00
2022-10-14T00:49:28.920Z,100.00
2022-10-14T00:50:30.276Z,100.00
2022-10-14T00:51:33.127Z,100.00
2022-10-14T00:52:34.477Z,100.00
2022-10-14T00:53:36.005Z,100.00
2022-10-14T00:54:49.892Z,100.00
2022-10-14T00:55:51.275Z,100.00
2022-10-14T00:56:52.744Z,100.00
2022-10-14T00:57:54.101Z,100.00
2022-10-14T00:58:56.373Z,100.00
2022-10-14T01:00:01.869Z,100.00
2022-10-14T01:01:03.343Z,100.00
2022-10-14T01:02:05.047Z,100.00
2022-10-14T01:03:07.589Z,100.00
2022-10-14T01:04:08.892Z,100.00
2022-10-14T01:05:11.419Z,100.00
2022-10-14T01:06:24.978Z,100.00
2022-10-14T01:07:46.114Z,100.00
2022-10-14T01:08:58.747Z,100.00
2022-10-14T01:10:23.170Z,100.00
2022-10-14T01:11:31.440Z,100.00
2022-10-14T01:12:36.000Z,100.00
2022-10-14T01:13:42.561Z,100.00
2022-10-14T01:14:52.778Z,100.00
2022-10-14T01:15:57.142Z,100.00
2022-10-14T01:17:10.493Z,100.00
2022-10-14T01:18:30.164Z,100.00
2022-10-14T01:19:39.260Z,100.00
2022-10-14T01:20:43.431Z,100.00
2022-10-14T01:21:48.345Z,100.00
2022-10-14T01:23:03.781Z,100.00
2022-10-14T01:24:21.992Z,100.00
2022-10-14T01:25:31.844Z,100.00
2022-10-14T01:26:51.589Z,100.00
2022-10-14T01:28:14.821Z,100.00
2022-10-14T01:29:26.529Z,100.00
2022-10-14T01:30:51.185Z,100.00
2022-10-14T01:32:05.776Z,100.00
2022-10-14T01:33:13.542Z,100.00
2022-10-14T01:34:18.716Z,100.00
2022-10-14T01:35:20.078Z,100.00
2022-10-14T01:36:37.559Z,100.00
2022-10-14T01:37:45.258Z,100.00
2022-10-14T01:38:58.876Z,100.00
2022-10-14T01:40:03.040Z,100.00
2022-10-14T01:41:06.963Z,100.00
2022-10-14T01:42:11.002Z,100.00
2022-10-14T01:43:13.269Z,100.00
2022-10-14T01:44:16.797Z,100.00
2022-10-14T01:45:20.441Z,100.00
2022-10-14T01:46:24.428Z,100.00
2022-10-14T01:47:28.354Z,100.00
2022-10-14T01:48:32.575Z,100.00
2022-10-14T01:49:39.493Z,100.00
2022-10-14T01:50:44.525Z,100.00
2022-10-14T01:51:51.235Z,100.00
2022-10-14T01:52:56.560Z,100.00
2022-10-14T01:54:02.557Z,100.00
2022-10-14T01:55:07.174Z,100.00
2022-10-14T01:56:09.561Z,100.00
2022-10-14T01:57:15.353Z,100.00
2022-10-14T01:58:18.137Z,100.00
2022-10-14T01:59:21.161Z,100.00
2022-10-14T02:00:22.589Z,100.00
2022-10-14T02:01:24.358Z,100.00
2022-10-14T02:02:25.921Z,100.00
2022-10-14T02:03:37.641Z,100.00
2022-10-14T02:04:39.618Z,100.00
2022-10-14T02:05:53.137Z,100.00
2022-10-14T02:06:57.679Z,100.00
2022-10-14T02:08:04.929Z,100.00
2022-10-14T02:09:06.232Z,100.00
2022-10-14T02:10:44.014Z,100.00
2022-10-14T02:11:51.191Z,100.00
2022-10-14T02:13:00.296Z,100.00
2022-10-14T02:14:26.433Z,100.00
2022-10-14T02:15:45.397Z,100.00
2022-10-14T02:16:59.974Z,100.00
2022-10-14T02:18:10.672Z,100.00
2022-10-14T02:19:29.292Z,100.00
2022-10-14T02:20:35.745Z,100.00
2022-10-14T02:21:41.582Z,100.00
2022-10-14T02:22:45.169Z,100.00
2022-10-14T02:23:49.920Z,100.00
2022-10-14T02:24:52.879Z,100.00
2022-10-14T02:25:54.844Z,100.00
2022-10-14T02:26:57.994Z,100.00
2022-10-14T02:28:01.128Z,100.00
2022-10-14T02:29:03.133Z,100.00
2022-10-14T02:30:04.696Z,100.00
2022-10-14T02:31:10.377Z,100.00
2022-10-14T02:32:13.985Z,100.00
2022-10-14T02:33:15.624Z,100.00
2022-10-14T02:34:20.928Z,100.00
2022-10-14T02:35:24.106Z,100.00
2022-10-14T02:36:26.747Z,100.00
2022-10-14T02:37:29.568Z,100.00
2022-10-14T02:38:33.930Z,100.00
2022-10-14T02:39:37.183Z,100.00
2022-10-14T02:40:44.641Z,100.00
2022-10-14T02:41:46.125Z,100.00
2022-10-14T02:42:47.454Z,100.00
2022-10-14T02:43:48.836Z,100.00
2022-10-14T02:44:58.013Z,100.00
2022-10-14T02:46:01.391Z,100.00
2022-10-14T02:47:03.298Z,100.00
2022-10-14T02:48:05.702Z,100.00
2022-10-14T02:49:07.097Z,100.00
2022-10-14T02:50:08.675Z,100.00
2022-10-14T02:51:10.049Z,100.00
2022-10-14T02:52:12.846Z,100.00
2022-10-14T02:53:16.081Z,100.00
2022-10-14T02:54:19.974Z,100.00
2022-10-14T02:55:21.401Z,100.00
2022-10-14T02:56:22.972Z,100.00
2022-10-14T02:57:24.384Z,100.00
2022-10-14T02:58:25.709Z,100.00
2022-10-14T02:59:27.085Z,100.00
2022-10-14T03:00:29.364Z,100.00
2022-10-14T03:01:36.469Z,100.00
2022-10-14T03:02:39.544Z,100.00
2022-10-14T03:03:41.785Z,100.00
2022-10-14T03:04:43.157Z,100.00
2022-10-14T03:05:45.149Z,100.00
2022-10-14T03:06:48.288Z,100.00
2022-10-14T03:07:49.715Z,100.00
2022-10-14T03:08:53.140Z,100.00
2022-10-14T03:09:54.494Z,100.00
2022-10-14T03:10:58.300Z,100.00
2022-10-14T03:12:00.656Z,100.00
2022-10-14T03:13:02.772Z,100.00
2022-10-14T03:14:09.458Z,100.00
2022-10-14T03:15:11.596Z,100.00
2022-10-14T03:16:14.033Z,100.00
2022-10-14T03:17:18.599Z,100.00
2022-10-14T03:18:20.919Z,100.00
2022-10-14T03:19:23.804Z,100.00
2022-10-14T03:20:28.888Z,100.00
2022-10-14T03:21:31.987Z,100.00
2022-10-14T03:22:33.363Z,100.00
2022-10-14T03:23:34.853Z,100.00
2022-10-14T03:24:36.980Z,100.00
2022-10-14T03:26:13.844Z,100.00
2022-10-14T03:27:18.181Z,100.00
2022-10-14T03:28:23.250Z,100.00
2022-10-14T03:29:35.472Z,100.00
2022-10-14T03:30:46.958Z,100.00
2022-10-14T03:31:53.409Z,100.00
2022-10-14T03:33:22.782Z,100.00
2022-10-14T03:34:35.242Z,100.00
2022-10-14T03:35:40.400Z,100.00
2022-10-14T03:36:45.984Z,100.00
2022-10-14T03:37:47.797Z,100.00
2022-10-14T03:38:51.945Z,100.00
2022-10-14T03:40:13.753Z,100.00
2022-10-14T03:41:15.081Z,100.00
2022-10-14T03:42:16.461Z,100.00
2022-10-14T03:43:21.504Z,100.00
2022-10-14T03:44:29.058Z,100.00
2022-10-14T03:45:45.859Z,100.00
2022-10-14T03:46:48.760Z,100.00
2022-10-14T03:47:50.105Z,100.00
2022-10-14T03:48:52.094Z,100.00
2022-10-14T03:49:53.745Z,100.00
2022-10-14T03:51:00.966Z,100.00
2022-10-14T03:52:03.859Z,100.00
2022-10-14T03:53:08.153Z,100.00
2022-10-14T03:54:11.306Z,100.00
2022-10-14T03:55:13.386Z,100.00
2022-10-14T03:56:16.966Z,100.00
2022-10-14T03:57:19.359Z,100.00
2022-10-14T03:58:26.075Z,100.00
2022-10-14T03:59:33.259Z,100.00
2022-10-14T04:00:35.182Z,100.00
2022-10-14T04:01:52.246Z,100.00
2022-10-14T04:02:57.790Z,100.00
2022-10-14T04:04:08.090Z,100.00
2022-10-14T04:05:10.869Z,100.00
2022-10-14T04:06:13.502Z,100.00
2022-10-14T04:07:14.880Z,100.00
2022-10-14T04:08:23.143Z,100.00
2022-10-14T04:09:30.397Z,100.00
2022-10-14T04:10:31.782Z,100.00
2022-10-14T04:11:33.578Z,100.00
2022-10-14T04:12:39.704Z,100.00
2022-10-14T04:13:45.296Z,100.00
2022-10-14T04:14:46.623Z,100.00
2022-10-14T04:15:48.030Z,100.00
2022-10-14T04:17:12.414Z,100.00
2022-10-14T04:18:13.791Z,100.00
2022-10-14T04:19:16.817Z,100.00
2022-10-14T04:20:18.745Z,100.00
2022-10-14T04:21:20.880Z,100.00
2022-10-14T04:22:25.117Z,100.00
2022-10-14T04:23:29.216Z,100.00
2022-10-14T04:24:36.385Z,100.00
2022-10-14T04:25:38.532Z,100.00
2022-10-14T04:26:40.782Z,100.00
2022-10-14T04:27:48.354Z,100.00
2022-10-14T04:28:49.768Z,100.00
2022-10-14T04:30:05.237Z,100.00
2022-10-14T04:31:16.687Z,100.00
2022-10-14T04:32:33.071Z,100.00
2022-10-14T04:33:34.850Z,100.00
2022-10-14T04:34:44.068Z,100.00
2022-10-14T04:35:49.051Z,100.00
2022-10-14T04:36:58.272Z,100.00
2022-10-14T04:38:16.817Z,100.00
2022-10-14T04:39:26.371Z,100.00
2022-10-14T04:40:27.895Z,100.00
2022-10-14T04:41:31.711Z,100.00
2022-10-14T04:42:35.351Z,100.00
2022-10-14T04:43:40.025Z,100.00
2022-10-14T04:44:56.978Z,100.00
2022-10-14T04:46:07.896Z,100.00
2022-10-14T04:47:09.448Z,100.00
2022-10-14T04:48:11.715Z,100.00
2022-10-14T04:49:17.077Z,100.00
2022-10-14T04:50:27.524Z,100.00
2022-10-14T04:51:47.381Z,100.00
2022-10-14T04:53:01.138Z,100.00
2022-10-14T04:54:02.496Z,100.00
2022-10-14T04:55:19.320Z,100.00
2022-10-14T04:56:21.017Z,100.00
2022-10-14T04:57:31.331Z,100.00
2022-10-14T04:58:32.835Z,100.00
2022-10-14T04:59:34.234Z,100.00
2022-10-14T05:00:53.785Z,100.00
2022-10-14T05:02:03.152Z,100.00
2022-10-14T05:03:13.497Z,100.00
2022-10-14T05:04:14.855Z,100.00
2022-10-14T05:05:18.045Z,100.00
2022-10-14T05:06:24.386Z,100.00
2022-10-14T05:07:27.224Z,100.00
2022-10-14T05:08:36.510Z,100.00
2022-10-14T05:09:39.957Z,100.00
2022-10-14T05:10:52.922Z,100.00
2022-10-14T05:12:08.370Z,100.00
2022-10-14T05:13:18.076Z,100.00
2022-10-14T05:14:29.593Z,100.00
2022-10-14T05:15:42.169Z,100.00
2022-10-14T05:16:46.619Z,100.00
2022-10-14T05:17:48.141Z,100.00
2022-10-14T05:18:53.247Z,100.00
2022-10-14T05:19:54.646Z,100.00
2022-10-14T05:20:58.345Z,100.00
2022-10-14T05:22:02.621Z,100.00
2022-10-14T05:23:11.318Z,100.00
2022-10-14T05:24:12.776Z,100.00
2022-10-14T05:25:15.298Z,100.00
2022-10-14T05:26:17.257Z,100.00
2022-10-14T05:27:19.116Z,100.00
2022-10-14T05:28:20.914Z,100.00
2022-10-14T05:29:24.105Z,100.00
2022-10-14T05:30:28.659Z,100.00
2022-10-14T05:31:33.635Z,100.00
2022-10-14T05:32:42.088Z,100.00
2022-10-14T05:33:43.525Z,100.00
2022-10-14T05:34:45.294Z,100.00
2022-10-14T05:36:07.167Z,100.00
2022-10-14T05:37:09.190Z,100.00
2022-10-14T05:38:17.624Z,100.00
2022-10-14T05:39:22.538Z,100.00
2022-10-14T05:40:23.947Z,100.00
2022-10-14T05:41:27.029Z,100.00
2022-10-14T05:42:28.370Z,100.00
2022-10-14T05:43:33.093Z,100.00
2022-10-14T05:44:36.613Z,100.00
2022-10-14T05:45:39.031Z,100.00
2022-10-14T05:46:40.846Z,100.00
2022-10-14T05:47:46.015Z,100.00
2022-10-14T05:48:52.418Z,100.00
2022-10-14T05:50:00.647Z,100.00
2022-10-14T05:51:07.285Z,100.00
2022-10-14T05:52:13.657Z,100.00
2022-10-14T05:53:15.248Z,100.00
2022-10-14T05:54:20.986Z,100.00
2022-10-14T05:55:27.493Z,100.00
2022-10-14T05:56:38.065Z,100.00
2022-10-14T05:57:39.601Z,100.00
2022-10-14T05:58:40.992Z,100.00
2022-10-14T05:59:43.007Z,100.00
2022-10-14T06:00:44.490Z,100.00
2022-10-14T06:01:50.194Z,100.00
2022-10-14T06:02:52.790Z,100.00
2022-10-14T06:03:54.322Z,100.00
2022-10-14T06:04:56.337Z,100.00
2022-10-14T06:05:58.009Z,100.00
2022-10-14T06:06:59.368Z,100.00
2022-10-14T06:08:00.698Z,100.00
2022-10-14T06:09:02.037Z,100.00
2022-10-14T06:10:03.527Z,100.00
2022-10-14T06:11:04.928Z,100.00
2022-10-14T06:12:08.353Z,100.00
2022-10-14T06:13:10.561Z,100.00
2022-10-14T06:14:13.574Z,100.00
2022-10-14T06:15:15.374Z,100.00
2022-10-14T06:16:16.700Z,100.00
2022-10-14T06:17:24.313Z,100.00
2022-10-14T06:18:25.727Z,100.00
2022-10-14T06:19:28.341Z,100.00
2022-10-14T06:20:29.693Z,100.00
2022-10-14T06:21:31.017Z,100.00
2022-10-14T06:22:32.306Z,100.00
2022-10-14T06:23:33.654Z,100.00
2022-10-14T06:24:34.987Z,100.00
2022-10-14T06:25:36.486Z,100.00
2022-10-14T06:26:37.811Z,100.00
2022-10-14T06:27:39.135Z,100.00
2022-10-14T06:28:40.569Z,100.00
2022-10-14T06:29:41.970Z,100.00
2022-10-14T06:30:43.466Z,100.00
2022-10-14T06:31:44.759Z,100.00
2022-10-14T06:32:46.285Z,100.00
2022-10-14T06:33:47.585Z,100.00
2022-10-14T06:34:48.953Z,100.00
2022-10-14T06:35:50.335Z,100.00
2022-10-14T06:36:51.650Z,100.00
2022-10-14T06:37:52.965Z,100.00
2022-10-14T06:38:54.317Z,100.00
2022-10-14T06:39:55.654Z,100.00
2022-10-14T06:40:57.032Z,100.00
2022-10-14T06:41:58.354Z,100.00
2022-10-14T06:42:59.665Z,100.00
2022-10-14T06:44:01.052Z,100.00
2022-10-14T06:45:02.403Z,100.00
2022-10-14T06:46:04.219Z,100.00
2022-10-14T06:47:06.578Z,100.00
2022-10-14T06:48:07.882Z,100.00
2022-10-14T06:49:09.226Z,100.00
2022-10-14T06:50:10.698Z,100.00
2022-10-14T06:51:12.085Z,100.00
2022-10-14T06:52:13.445Z,100.00
2022-10-14T06:53:14.880Z,100.00
2022-10-14T06:54:16.996Z,100.00
2022-10-14T06:55:18.321Z,100.00
2022-10-14T06:56:19.618Z,100.00
2022-10-14T06:57:20.955Z,100.00
2022-10-14T06:58:22.324Z,100.00
2022-10-14T06:59:23.689Z,100.00
2022-10-14T07:00:25.113Z,100.00
2022-10-14T07:01:26.588Z,100.00
2022-10-14T07:02:28.080Z,100.00
2022-10-14T07:03:29.396Z,100.00
2022-10-14T07:04:30.718Z,100.00
2022-10-14T07:05:32.061Z,100.00
2022-10-14T07:06:33.444Z,100.00
2022-10-14T07:07:34.749Z,100.00
2022-10-14T07:08:36.105Z,100.00
2022-10-14T07:09:37.567Z,100.00
2022-10-14T07:10:38.945Z,100.00
2022-10-14T07:11:40.274Z,100.00
2022-10-14T07:12:42.628Z,100.00
2022-10-14T07:13:44.319Z,100.00
2022-10-14T07:14:45.622Z,100.00
2022-10-14T07:15:49.793Z,100.00
2022-10-14T07:16:51.207Z,100.00
2022-10-14T07:17:52.537Z,100.00
2022-10-14T07:18:53.936Z,100.00
2022-10-14T07:19:55.245Z,100.00
2022-10-14T07:20:56.600Z,100.00
2022-10-14T07:21:57.965Z,100.00
2022-10-14T07:22:59.330Z,100.00
2022-10-14T07:24:00.627Z,100.00
2022-10-14T07:25:02.412Z,100.00
2022-10-14T07:26:03.808Z,100.00
2022-10-14T07:27:05.204Z,100.00
2022-10-14T07:28:06.819Z,100.00
2022-10-14T07:29:08.119Z,100.00
2022-10-14T07:30:12.581Z,100.00
2022-10-14T07:31:16.590Z,100.00
2022-10-14T07:32:17.908Z,100.00
2022-10-14T07:33:19.248Z,100.00
2022-10-14T07:34:20.643Z,100.00
2022-10-14T07:35:21.972Z,100.00
2022-10-14T07:36:23.634Z,100.00
2022-10-14T07:37:25.252Z,100.00
2022-10-14T07:38:26.733Z,100.00
2022-10-14T07:39:28.394Z,100.00
2022-10-14T07:40:29.777Z,100.00
2022-10-14T07:41:32.009Z,100.00
2022-10-14T07:42:34.102Z,100.00
2022-10-14T07:43:35.481Z,100.00
2022-10-14T07:44:36.845Z,100.00
2022-10-14T07:45:41.314Z,100.00
2022-10-14T07:46:43.445Z,100.00
2022-10-14T07:47:47.541Z,100.00
2022-10-14T07:48:57.509Z,100.00
2022-10-14T07:50:02.497Z,100.00
2022-10-14T07:51:03.880Z,100.00
2022-10-14T07:52:05.295Z,100.00
2022-10-14T07:53:06.667Z,100.00
2022-10-14T07:54:09.837Z,100.00
2022-10-14T07:55:11.436Z,100.00
2022-10-14T07:56:12.801Z,100.00
2022-10-14T07:57:14.315Z,100.00
2022-10-14T07:58:15.654Z,100.00
2022-10-14T07:59:18.084Z,100.00
2022-10-14T08:00:19.394Z,100.00
2022-10-14T08:01:20.773Z,100.00
2022-10-14T08:02:22.218Z,100.00
2022-10-14T08:03:24.269Z,100.00
2022-10-14T08:04:25.634Z,100.00
2022-10-14T08:05:42.801Z,100.00
2022-10-14T08:06:44.207Z,100.00
2022-10-14T08:07:45.603Z,100.00
2022-10-14T08:08:47.211Z,100.00
2022-10-14T08:09:48.595Z,100.00
2022-10-14T08:10:49.910Z,100.00
2022-10-14T08:11:51.261Z,100.00
2022-10-14T08:12:52.715Z,100.00
2022-10-14T08:13:54.749Z,100.00
2022-10-14T08:14:56.693Z,100.00
2022-10-14T08:15:58.086Z,100.00
2022-10-14T08:16:59.432Z,100.00
2022-10-14T08:18:01.082Z,100.00
2022-10-14T08:19:05.561Z,100.00
2022-10-14T08:20:09.083Z,100.00
2022-10-14T08:21:10.466Z,100.00
2022-10-14T08:22:11.781Z,100.00
2022-10-14T08:23:16.155Z,100.00
2022-10-14T08:24:20.369Z,100.00
2022-10-14T08:25:21.770Z,100.00
2022-10-14T08:26:32.144Z,100.00
2022-10-14T08:27:33.480Z,100.00
2022-10-14T08:28:34.859Z,100.00
2022-10-14T08:29:36.225Z,100.00
2022-10-14T08:30:37.528Z,100.00
2022-10-14T08:31:38.886Z,100.00
2022-10-14T08:32:40.412Z,100.00
2022-10-14T08:33:41.790Z,100.00
2022-10-14T08:34:43.112Z,100.00
2022-10-14T08:35:44.460Z,100.00
2022-10-14T08:36:45.793Z,100.00
2022-10-14T08:37:56.713Z,100.00
2022-10-14T08:38:58.099Z,100.00
2022-10-14T08:39:59.474Z,100.00
2022-10-14T08:41:06.627Z,100.00
2022-10-14T08:42:10.786Z,100.00
2022-10-14T08:43:18.287Z,100.00
2022-10-14T08:44:19.612Z,100.00
2022-10-14T08:45:32.474Z,100.00
2022-10-14T08:46:38.435Z,100.00
2022-10-14T08:47:42.104Z,100.00
2022-10-14T08:48:44.105Z,100.00
2022-10-14T08:50:00.618Z,100.00
2022-10-14T08:51:09.805Z,100.00
2022-10-14T08:52:15.352Z,100.00
2022-10-14T08:53:19.374Z,100.00
2022-10-14T08:54:31.073Z,100.00
2022-10-14T08:55:35.393Z,100.00
2022-10-14T08:56:37.242Z,100.00
2022-10-14T08:57:41.298Z,100.00
2022-10-14T08:58:53.143Z,100.00
2022-10-14T08:59:54.466Z,100.00
2022-10-14T09:00:56.142Z,100.00
2022-10-14T09:02:01.990Z,100.00
2022-10-14T09:03:10.178Z,100.00
2022-10-14T09:04:13.522Z,100.00
2022-10-14T09:05:15.944Z,100.00
2022-10-14T09:06:24.522Z,100.00
2022-10-14T09:07:26.153Z,100.00
2022-10-14T09:08:31.029Z,100.00
2022-10-14T09:09:43.277Z,100.00
2022-10-14T09:10:44.937Z,100.00
2022-10-14T09:11:48.621Z,100.00
2022-10-14T09:12:50.954Z,100.00
2022-10-14T09:13:57.318Z,100.00
2022-10-14T09:15:12.412Z,100.00
2022-10-14T09:16:17.281Z,100.00
2022-10-14T09:17:27.410Z,100.00
2022-10-14T09:18:36.644Z,100.00
2022-10-14T09:19:56.770Z,100.00
2022-10-14T09:20:58.767Z,100.00
2022-10-14T09:22:00.935Z,100.00
2022-10-14T09:23:02.240Z,100.00
2022-10-14T09:24:12.373Z,100.00
2022-10-14T09:25:16.623Z,98.69
2022-10-14T09:26:19.343Z,98.20
2022-10-14T09:27:22.380Z,99.02
2022-10-14T09:28:39.705Z,98.62
2022-10-14T09:29:48.651Z,98.17
2022-10-14T09:30:50.020Z,97.26
2022-10-14T09:31:51.709Z,97.54
2022-10-14T09:32:54.207Z,96.30
2022-10-14T09:33:56.070Z,96.54
2022-10-14T09:34:58.020Z,97.42
2022-10-14T09:36:00.348Z,96.59
2022-10-14T09:37:20.855Z,96.60
2022-10-14T09:38:22.567Z,97.07
2022-10-14T09:39:23.987Z,96.04
2022-10-14T09:40:28.206Z,95.33
2022-10-14T09:41:30.715Z,94.70
2022-10-14T09:42:42.703Z,94.95
2022-10-14T09:44:02.841Z,95.61
2022-10-14T09:45:23.149Z,94.94
2022-10-14T09:46:24.827Z,95.20
2022-10-14T09:47:26.408Z,95.86
2022-10-14T09:48:27.858Z,95.85
2022-10-14T09:49:33.737Z,95.88
2022-10-14T09:50:41.329Z,97.47
2022-10-14T09:51:43.289Z,95.83
2022-10-14T09:52:57.237Z,97.23
2022-10-14T09:53:59.921Z,95.70
2022-10-14T09:55:01.585Z,94.34
2022-10-14T09:56:04.724Z,95.91
2022-10-14T09:57:07.445Z,96.55
2022-10-14T09:58:14.382Z,96.86
2022-10-14T09:59:17.386Z,96.66
2022-10-14T10:00:26.155Z,98.22
2022-10-14T10:01:29.097Z,98.19
2022-10-14T10:02:39.371Z,98.79
2022-10-14T10:03:40.851Z,98.43
2022-10-14T10:04:44.189Z,97.77
2022-10-14T10:05:45.619Z,97.51
2022-10-14T10:06:51.307Z,97.34
2022-10-14T10:08:03.743Z,97.75
2022-10-14T10:09:05.106Z,97.27
2022-10-14T10:10:24.563Z,96.01
2022-10-14T10:11:30.386Z,95.92
2022-10-14T10:12:33.152Z,96.06
2022-10-14T10:13:36.115Z,96.44
2022-10-14T10:14:37.495Z,96.00
2022-10-14T10:15:38.794Z,94.27
2022-10-14T10:16:40.206Z,95.03
2022-10-14T10:17:41.657Z,95.90
2022-10-14T10:18:43.017Z,94.76
2022-10-14T10:19:48.073Z,94.78
2022-10-14T10:21:00.324Z,94.13
2022-10-14T10:22:34.263Z,95.16
2022-10-14T10:23:36.329Z,95.65
2022-10-14T10:24:37.641Z,95.69
2022-10-14T10:25:38.938Z,94.82
2022-10-14T10:26:40.249Z,94.25
2022-10-14T10:27:42.855Z,93.62
2022-10-14T10:28:45.629Z,93.33
2022-10-14T10:29:47.110Z,93.61
2022-10-14T10:30:57.562Z,92.50
2022-10-14T10:32:01.753Z,92.62
2022-10-14T10:33:03.074Z,91.72
2022-10-14T10:34:09.955Z,90.37
2022-10-14T10:35:17.523Z,91.83
2022-10-14T10:36:30.075Z,91.79
2022-10-14T10:37:32.702Z,91.20
2022-10-14T10:38:39.010Z,91.15
2022-10-14T10:39:40.295Z,91.46
2022-10-14T10:41:16.982Z,92.14
2022-10-14T10:42:26.131Z,93.47
2022-10-14T10:43:38.946Z,91.98
2022-10-14T10:44:43.280Z,90.68
2022-10-14T10:45:44.715Z,91.49
2022-10-14T10:46:46.156Z,91.56
2022-10-14T10:47:53.363Z,91.70
2022-10-14T10:49:17.420Z,92.64
2022-10-14T10:50:28.122Z,91.73
2022-10-14T10:51:29.598Z,90.88
2022-10-14T10:52:42.082Z,90.84
2022-10-14T10:53:48.385Z,89.14
2022-10-14T10:54:58.729Z,86.63
2022-10-14T10:56:15.906Z,87.26
2022-10-14T10:57:20.268Z,87.26
2022-10-14T10:58:39.696Z,86.97
2022-10-14T10:59:48.940Z,85.79
2022-10-14T11:00:54.664Z,87.02
2022-10-14T11:02:14.788Z,87.11
2022-10-14T11:03:36.061Z,87.14
2022-10-14T11:04:37.425Z,85.87
2022-10-14T11:05:51.482Z,86.29
2022-10-14T11:07:13.124Z,87.47
2022-10-14T11:08:24.709Z,85.89
2022-10-14T11:09:32.020Z,85.88
2022-10-14T11:10:42.542Z,85.81
2022-10-14T11:11:50.801Z,85.27
2022-10-14T11:13:00.813Z,86.03
2022-10-14T11:14:21.038Z,87.62
2022-10-14T11:15:40.674Z,87.15
2022-10-14T11:17:00.809Z,85.29
2022-10-14T11:18:20.953Z,85.43
2022-10-14T11:19:34.626Z,86.36
2022-10-14T11:20:54.688Z,87.41
2022-10-14T11:22:24.230Z,87.13
2022-10-14T11:23:37.439Z,87.47
2022-10-14T11:24:56.416Z,87.58
2022-10-14T11:25:57.770Z,87.77
2022-10-14T11:27:05.147Z,88.05
2022-10-14T11:28:21.633Z,88.39
2022-10-14T11:29:36.982Z,88.52
2022-10-14T11:30:53.406Z,86.53
2022-10-14T11:31:57.401Z,87.17
2022-10-14T11:32:59.069Z,87.83
2022-10-14T11:34:00.529Z,87.31
2022-10-14T11:35:14.363Z,89.12
2022-10-14T11:36:15.669Z,90.48
2022-10-14T11:37:32.944Z,91.47
2022-10-14T11:38:39.991Z,93.00
2022-10-14T11:39:46.533Z,95.72
2022-10-14T11:41:01.202Z,96.43
2022-10-14T11:42:18.003Z,97.89
2022-10-14T11:43:26.358Z,98.38
2022-10-14T11:44:31.930Z,99.54
2022-10-14T11:45:42.283Z,99.36
2022-10-14T11:46:45.609Z,99.74
2022-10-14T11:47:50.547Z,99.93
2022-10-14T11:49:01.283Z,99.40
2022-10-14T11:50:21.622Z,99.86
2022-10-14T11:51:36.029Z,100.00
2022-10-14T11:52:45.633Z,100.00
2022-10-14T11:53:52.305Z,100.00
2022-10-14T11:54:55.956Z,100.00
2022-10-14T11:56:04.944Z,100.00
2022-10-14T11:57:26.541Z,100.00
2022-10-14T11:58:29.456Z,100.00
2022-10-14T11:59:33.816Z,100.00
2022-10-14T12:00:38.660Z,100.00
2022-10-14T12:01:40.903Z,100.00
2022-10-14T12:02:52.994Z,100.00
2022-10-14T12:03:57.589Z,100.00
2022-10-14T12:05:14.473Z,100.00
2022-10-14T12:06:25.383Z,100.00
2022-10-14T12:07:31.200Z,100.00
2022-10-14T12:08:39.852Z,100.00
2022-10-14T12:09:48.590Z,100.00
2022-10-14T12:10:53.194Z,100.00
2022-10-14T12:12:05.975Z,100.00
2022-10-14T12:13:18.434Z,100.00
2022-10-14T12:14:28.825Z,99.71
2022-10-14T12:16:39.196Z,98.68
2022-10-14T12:17:46.407Z,99.21
2022-10-14T12:18:50.111Z,97.63
2022-10-14T12:19:53.542Z,98.50
2022-10-14T12:20:57.783Z,97.55
2022-10-14T12:21:59.345Z,96.03
2022-10-14T12:23:03.519Z,95.12
2022-10-14T12:24:07.246Z,95.29
2022-10-14T12:25:13.395Z,94.74
2022-10-14T12:26:20.739Z,96.14
2022-10-14T12:27:24.225Z,95.96
2022-10-14T12:28:26.054Z,95.89
2022-10-14T12:29:40.299Z,95.48
2022-10-14T12:30:42.449Z,94.77
2022-10-14T12:31:48.661Z,94.53
2022-10-14T12:33:05.662Z,94.62
2022-10-14T12:34:12.985Z,93.02
2022-10-14T12:35:37.630Z,93.96
2022-10-14T12:36:39.795Z,94.65
2022-10-14T12:37:48.752Z,94.02
2022-10-14T12:39:10.129Z,93.53
2022-10-14T12:40:14.557Z,94.52
2022-10-14T12:41:39.653Z,94.99
2022-10-14T12:42:44.058Z,93.52
2022-10-14T12:43:58.681Z,93.82
2022-10-14T12:45:01.170Z,93.37
2022-10-14T12:46:13.326Z,92.68
2022-10-14T12:47:27.030Z,91.92
2022-10-14T12:48:32.715Z,91.85
2022-10-14T12:49:35.112Z,92.37
2022-10-14T12:50:37.805Z,91.16
2022-10-14T12:51:51.971Z,88.36
2022-10-14T12:52:56.520Z,88.79
2022-10-14T12:54:15.653Z,85.29
2022-10-14T12:55:22.425Z,85.92
2022-10-14T12:56:44.365Z,86.22
2022-10-14T12:57:52.862Z,87.74
2022-10-14T12:59:05.730Z,87.31
2022-10-14T13:00:22.372Z,87.72
2022-10-14T13:01:23.841Z,87.85
2022-10-14T13:02:33.012Z,86.54
2022-10-14T13:03:40.605Z,86.33
2022-10-14T13:04:53.446Z,85.66
2022-10-14T13:06:14.726Z,84.59
2022-10-14T13:07:35.261Z,84.29
2022-10-14T13:08:37.409Z,84.04
2022-10-14T13:09:38.755Z,86.22
2022-10-14T13:10:45.993Z,84.90
2022-10-14T13:11:51.150Z,85.12
2022-10-14T13:12:52.660Z,86.02
2022-10-14T13:14:00.458Z,86.69
2022-10-14T13:15:04.271Z,85.84
2022-10-14T13:16:06.368Z,85.82
2022-10-14T13:17:26.549Z,86.47
2022-10-14T13:18:28.022Z,87.85
2022-10-14T13:19:35.008Z,87.35
2022-10-14T13:20:36.333Z,88.24
2022-10-14T13:21:37.649Z,86.54
2022-10-14T13:22:39.469Z,87.12
2022-10-14T13:23:46.074Z,86.08
2022-10-14T13:24:47.442Z,85.67
2022-10-14T13:25:50.628Z,86.32
2022-10-14T13:26:54.914Z,86.34
2022-10-14T13:28:03.590Z,85.91
2022-10-14T13:29:19.922Z,85.94
2022-10-14T13:30:31.535Z,85.20
2022-10-14T13:31:53.874Z,84.17
2022-10-14T13:32:59.081Z,85.04
2022-10-14T13:34:10.398Z,84.66
2022-10-14T13:35:11.689Z,84.33
2022-10-14T13:36:39.259Z,84.84
2022-10-14T13:37:46.266Z,84.96
2022-10-14T13:38:58.758Z,84.20
2022-10-14T13:40:09.441Z,83.44
2022-10-14T13:41:16.264Z,83.51
2022-10-14T13:42:23.583Z,84.15
2022-10-14T13:43:27.834Z,84.51
2022-10-14T13:44:34.098Z,83.22
2022-10-14T13:45:42.076Z,83.83
2022-10-14T13:46:45.497Z,83.78
2022-10-14T13:47:48.366Z,82.93
2022-10-14T13:48:55.349Z,81.65
2022-10-14T13:49:56.908Z,82.53